Mckinley Sea — WDE5024 — position and weather

sailwx.info

Track history (hours):
 
Tides and Currents Weather Stations Pressure Air Temp Water Temp Dewpoint Dewpoint Depression Visibility Wind Speed Wind Dir Waves Ship Positions

Mckinley Sea

Owner: Kirby Offshore Marine, LLC, Staten Island, NY. More information available from US FCC via Universal Licensing System and Coast Guard Vessel Documentation Center.

Last reported at 2016-May-04 08:26 UTC. Time now 2016-May-05 00:59 UTC.
Position N 40°52' W 073°57'.

Length 41 m; draft 7 m.

Type: Tanker. MMSI: 367360980.

Date/timePositionNaut miles runAvg speedWind from/ knotsBaromVisibWave heightAir tempDewpointWater temp
2016-May-04 08:26N 40°52' W 073°57'7 7.7
2016-May-04 07:33N 40°46' W 074°01'7 7.2
2016-May-04 06:33N 40°39' W 074°04'6 6.4
2016-May-04 05:33N 40°38' W 074°12'1 0.0
2016-May-02 13:23N 40°36' W 074°12'0 0.0
2016-May-02 04:27N 40°36' W 074°12'5 6.2
2016-May-02 03:34N 40°39' W 074°06'3 2.6
2016-May-02 02:33N 40°40' W 074°03'0 0.0
2016-May-02 01:33N 40°40' W 074°03'0 0.0
2016-May-02 00:33N 40°40' W 074°03'0 0.0
2016-May-01 23:33N 40°40' W 074°03'0 0.1
2016-May-01 22:33N 40°40' W 074°03'0 0.1
2016-May-01 21:33N 40°40' W 074°02'0 0.0
2016-May-01 20:33N 40°40' W 074°02'0 0.0
2016-May-01 19:33N 40°40' W 074°03'0 0.0
2016-May-01 18:33N 40°40' W 074°03'0 0.1
2016-May-01 17:27N 40°40' W 074°03'0 0.1
2016-May-01 16:33N 40°40' W 074°03'0 0.0
2016-May-01 15:04N 40°40' W 074°03'0 0.0
2016-May-01 14:25N 40°40' W 074°03'0 0.0
2016-May-01 13:30N 40°40' W 074°03'0 0.0
2016-May-01 12:13N 40°40' W 074°03'0 0.1
2016-May-01 11:32N 40°40' W 074°03'0 0.1
2016-May-01 10:30N 40°40' W 074°03'0 0.1
2016-May-01 09:33N 40°40' W 074°02'0 0.0
2016-May-01 08:33N 40°40' W 074°02'0 0.0
2016-May-01 07:33N 40°40' W 074°02'0 0.0
2016-May-01 06:33N 40°40' W 074°02'0 0.0
2016-May-01 05:33N 40°40' W 074°03'0 0.2
2016-May-01 04:33N 40°40' W 074°02'0 0.1
2016-May-01 03:33N 40°40' W 074°03'0 0.0
2016-May-01 02:33N 40°40' W 074°03'0 0.0
2016-May-01 01:33N 40°40' W 074°03'0 0.0
2016-May-01 00:33N 40°40' W 074°03'0 0.0
2016-Apr-30 23:33N 40°40' W 074°03'0 0.1
2016-Apr-30 22:33N 40°40' W 074°03'0 0.1
2016-Apr-30 21:33N 40°40' W 074°03'2 2.5
2016-Apr-30 20:33N 40°39' W 074°06'3 2.2
2016-Apr-30 19:03N 40°39' W 074°10'0 0.0
2016-Apr-30 18:26N 40°39' W 074°10'6 6.6
2016-Apr-30 17:33N 40°40' W 074°02'2 2.2
2016-Apr-30 16:33N 40°38' W 074°03'11 9.2
2016-Apr-30 15:23N 40°29' W 073°54'179 7.9
2016-Apr-29 16:33N 42°23' W 070°49'9 8.5
2016-Apr-29 15:33N 42°20' W 071°00'4 3.7
2016-Apr-29 14:33N 42°24' W 071°01'0 0.0
2016-Apr-29 13:33N 42°24' W 071°01'0 0.0
2016-Apr-29 12:33N 42°24' W 071°01'0 0.0
2016-Apr-29 11:33N 42°24' W 071°01'0 0.0
2016-Apr-29 10:33N 42°24' W 071°01'0 0.0
2016-Apr-29 09:33N 42°24' W 071°01'0 0.0
2016-Apr-29 08:33N 42°24' W 071°01'0 0.0
2016-Apr-29 07:33N 42°24' W 071°01'0 0.0
2016-Apr-29 06:33N 42°24' W 071°01'0 0.0
2016-Apr-29 05:33N 42°24' W 071°01'0 0.0
2016-Apr-29 04:33N 42°24' W 071°01'0 0.0
2016-Apr-29 03:33N 42°24' W 071°01'0 0.0
2016-Apr-29 02:33N 42°24' W 071°01'0 0.0
2016-Apr-29 01:33N 42°24' W 071°01'0 0.0
2016-Apr-29 00:33N 42°24' W 071°01'0 0.0
2016-Apr-28 23:33N 42°24' W 071°01'0 0.0
2016-Apr-28 22:33N 42°24' W 071°01'0 0.0
2016-Apr-28 21:33N 42°24' W 071°01'0 0.0
2016-Apr-28 20:33N 42°24' W 071°01'0 0.0
2016-Apr-28 19:33N 42°24' W 071°01'0 0.0
2016-Apr-28 18:33N 42°24' W 071°01'0 0.0
2016-Apr-28 17:33N 42°24' W 071°01'0 0.0
2016-Apr-28 16:33N 42°24' W 071°01'0 0.0
2016-Apr-28 15:33N 42°24' W 071°01'0 0.1
2016-Apr-28 14:33N 42°24' W 071°01'3 2.6
2016-Apr-28 13:33N 42°21' W 071°02'6 5.8
2016-Apr-28 12:33N 42°22' W 070°54'7 7.5
2016-Apr-28 11:33N 42°21' W 070°45'182 5.4
2016-Apr-27 01:33N 40°35' W 074°02'6 5.5
2016-Apr-27 00:33N 40°39' W 074°08'4 3.4
2016-Apr-26 23:27N 40°38' W 074°12'0 0.0
2016-Apr-26 22:29N 40°38' W 074°12'0 0.0
2016-Apr-26 21:32N 40°38' W 074°12'0 0.0
2016-Apr-26 20:32N 40°38' W 074°12'0 0.0
2016-Apr-26 19:33N 40°38' W 074°12'0 0.0
2016-Apr-26 18:33N 40°38' W 074°12'0 0.0
2016-Apr-26 17:33N 40°38' W 074°12'0 0.0
2016-Apr-26 16:32N 40°38' W 074°12'0 0.0
2016-Apr-26 15:33N 40°38' W 074°12'0 0.0
2016-Apr-26 14:33N 40°38' W 074°12'0 0.0
2016-Apr-26 13:33N 40°38' W 074°12'0 0.0
2016-Apr-26 12:33N 40°38' W 074°12'0 0.0
2016-Apr-26 11:33N 40°38' W 074°12'0 0.0
2016-Apr-26 10:33N 40°38' W 074°12'0 0.0
2016-Apr-26 09:33N 40°38' W 074°12'0 0.0
2016-Apr-26 08:33N 40°38' W 074°12'0 0.0
2016-Apr-26 07:33N 40°38' W 074°12'0 0.0
2016-Apr-26 06:33N 40°38' W 074°12'0 0.0
2016-Apr-26 05:31N 40°38' W 074°12'0 0.0
2016-Apr-26 04:30N 40°38' W 074°12'0 0.0
2016-Apr-26 03:33N 40°38' W 074°12'0 0.0
2016-Apr-26 02:33N 40°38' W 074°12'0 0.0
2016-Apr-26 01:33N 40°38' W 074°12'0 0.0
2016-Apr-26 00:33N 40°38' W 074°12'0 0.0
2016-Apr-25 23:33N 40°38' W 074°12'0 0.0
2016-Apr-25 22:33N 40°38' W 074°12'0 0.0
2016-Apr-25 21:33N 40°38' W 074°12'0 0.0
2016-Apr-25 20:30N 40°38' W 074°12'0 0.0
2016-Apr-25 19:33N 40°38' W 074°12'0 0.0
2016-Apr-25 18:18N 40°38' W 074°12'0 0.0
2016-Apr-25 17:27N 40°38' W 074°12'1 0.7
2016-Apr-25 16:23N 40°38' W 074°12'7 8.0
2016-Apr-25 15:33N 40°39' W 074°03'0 0.2
2016-Apr-25 14:33N 40°39' W 074°03'5 5.2
2016-Apr-25 13:33N 40°39' W 074°10'0 0.0
2016-Apr-25 11:23N 40°39' W 074°10'5 6.3
2016-Apr-25 10:33N 40°39' W 074°03'0 0.0
2016-Apr-25 09:33N 40°39' W 074°03'0 0.0
2016-Apr-25 08:33N 40°39' W 074°03'0 0.0
2016-Apr-25 07:33N 40°39' W 074°03'0 0.0
2016-Apr-25 06:33N 40°39' W 074°03'0 0.0
2016-Apr-25 05:33N 40°39' W 074°03'1 1.2
2016-Apr-25 04:33N 40°40' W 074°03'  
Track history (hours):
 
Tides and Currents Weather Stations Pressure Air Temp Water Temp Dewpoint Dewpoint Depression Visibility Wind Speed Wind Dir Waves Ship Positions

Mckinley Sea

Owner: Kirby Offshore Marine, LLC, Staten Island, NY. More information available from US FCC via Universal Licensing System and Coast Guard Vessel Documentation Center.

Last reported at 2016-May-04 08:26 UTC. Time now 2016-May-05 00:59 UTC.
Position N 40°52' W 073°57'.

Length 41 m; draft 7 m.

Type: Tanker. MMSI: 367360980.

Date/timePositionNaut miles runAvg speedWind from/ knotsBaromVisibWave heightAir tempDewpointWater temp
2016-May-04 08:26N 40°52' W 073°57'7 7.7
2016-May-04 07:33N 40°46' W 074°01'7 7.2
2016-May-04 06:33N 40°39' W 074°04'6 6.4
2016-May-04 05:33N 40°38' W 074°12'1 0.0
2016-May-02 13:23N 40°36' W 074°12'0 0.0
2016-May-02 04:27N 40°36' W 074°12'5 6.2
2016-May-02 03:34N 40°39' W 074°06'3 2.6
2016-May-02 02:33N 40°40' W 074°03'0 0.0
2016-May-02 01:33N 40°40' W 074°03'0 0.0
2016-May-02 00:33N 40°40' W 074°03'0 0.0
2016-May-01 23:33N 40°40' W 074°03'0 0.1
2016-May-01 22:33N 40°40' W 074°03'0 0.1
2016-May-01 21:33N 40°40' W 074°02'0 0.0
2016-May-01 20:33N 40°40' W 074°02'0 0.0
2016-May-01 19:33N 40°40' W 074°03'0 0.0
2016-May-01 18:33N 40°40' W 074°03'0 0.1
2016-May-01 17:27N 40°40' W 074°03'0 0.1
2016-May-01 16:33N 40°40' W 074°03'0 0.0
2016-May-01 15:04N 40°40' W 074°03'0 0.0
2016-May-01 14:25N 40°40' W 074°03'0 0.0
2016-May-01 13:30N 40°40' W 074°03'0 0.0
2016-May-01 12:13N 40°40' W 074°03'0 0.1
2016-May-01 11:32N 40°40' W 074°03'0 0.1
2016-May-01 10:30N 40°40' W 074°03'0 0.1
2016-May-01 09:33N 40°40' W 074°02'0 0.0
2016-May-01 08:33N 40°40' W 074°02'0 0.0
2016-May-01 07:33N 40°40' W 074°02'0 0.0
2016-May-01 06:33N 40°40' W 074°02'0 0.0
2016-May-01 05:33N 40°40' W 074°03'0 0.2
2016-May-01 04:33N 40°40' W 074°02'0 0.1
2016-May-01 03:33N 40°40' W 074°03'0 0.0
2016-May-01 02:33N 40°40' W 074°03'0 0.0
2016-May-01 01:33N 40°40' W 074°03'0 0.0
2016-May-01 00:33N 40°40' W 074°03'0 0.0
2016-Apr-30 23:33N 40°40' W 074°03'0 0.1
2016-Apr-30 22:33N 40°40' W 074°03'0 0.1
2016-Apr-30 21:33N 40°40' W 074°03'2 2.5
2016-Apr-30 20:33N 40°39' W 074°06'3 2.2
2016-Apr-30 19:03N 40°39' W 074°10'0 0.0
2016-Apr-30 18:26N 40°39' W 074°10'6 6.6
2016-Apr-30 17:33N 40°40' W 074°02'2 2.2
2016-Apr-30 16:33N 40°38' W 074°03'11 9.2
2016-Apr-30 15:23N 40°29' W 073°54'179 7.9
2016-Apr-29 16:33N 42°23' W 070°49'9 8.5
2016-Apr-29 15:33N 42°20' W 071°00'4 3.7
2016-Apr-29 14:33N 42°24' W 071°01'0 0.0
2016-Apr-29 13:33N 42°24' W 071°01'0 0.0
2016-Apr-29 12:33N 42°24' W 071°01'0 0.0
2016-Apr-29 11:33N 42°24' W 071°01'0 0.0
2016-Apr-29 10:33N 42°24' W 071°01'0 0.0
2016-Apr-29 09:33N 42°24' W 071°01'0 0.0
2016-Apr-29 08:33N 42°24' W 071°01'0 0.0
2016-Apr-29 07:33N 42°24' W 071°01'0 0.0
2016-Apr-29 06:33N 42°24' W 071°01'0 0.0
2016-Apr-29 05:33N 42°24' W 071°01'0 0.0
2016-Apr-29 04:33N 42°24' W 071°01'0 0.0
2016-Apr-29 03:33N 42°24' W 071°01'0 0.0
2016-Apr-29 02:33N 42°24' W 071°01'0 0.0
2016-Apr-29 01:33N 42°24' W 071°01'0 0.0
2016-Apr-29 00:33N 42°24' W 071°01'0 0.0
2016-Apr-28 23:33N 42°24' W 071°01'0 0.0
2016-Apr-28 22:33N 42°24' W 071°01'0 0.0
2016-Apr-28 21:33N 42°24' W 071°01'0 0.0
2016-Apr-28 20:33N 42°24' W 071°01'0 0.0
2016-Apr-28 19:33N 42°24' W 071°01'0 0.0
2016-Apr-28 18:33N 42°24' W 071°01'0 0.0
2016-Apr-28 17:33N 42°24' W 071°01'0 0.0
2016-Apr-28 16:33N 42°24' W 071°01'0 0.0
2016-Apr-28 15:33N 42°24' W 071°01'0 0.1
2016-Apr-28 14:33N 42°24' W 071°01'3 2.6
2016-Apr-28 13:33N 42°21' W 071°02'6 5.8
2016-Apr-28 12:33N 42°22' W 070°54'7 7.5
2016-Apr-28 11:33N 42°21' W 070°45'182 5.4
2016-Apr-27 01:33N 40°35' W 074°02'6 5.5
2016-Apr-27 00:33N 40°39' W 074°08'4 3.4
2016-Apr-26 23:27N 40°38' W 074°12'0 0.0
2016-Apr-26 22:29N 40°38' W 074°12'0 0.0
2016-Apr-26 21:32N 40°38' W 074°12'0 0.0
2016-Apr-26 20:32N 40°38' W 074°12'0 0.0
2016-Apr-26 19:33N 40°38' W 074°12'0 0.0
2016-Apr-26 18:33N 40°38' W 074°12'0 0.0
2016-Apr-26 17:33N 40°38' W 074°12'0 0.0
2016-Apr-26 16:32N 40°38' W 074°12'0 0.0
2016-Apr-26 15:33N 40°38' W 074°12'0 0.0
2016-Apr-26 14:33N 40°38' W 074°12'0 0.0
2016-Apr-26 13:33N 40°38' W 074°12'0 0.0
2016-Apr-26 12:33N 40°38' W 074°12'0 0.0
2016-Apr-26 11:33N 40°38' W 074°12'0 0.0
2016-Apr-26 10:33N 40°38' W 074°12'0 0.0
2016-Apr-26 09:33N 40°38' W 074°12'0 0.0
2016-Apr-26 08:33N 40°38' W 074°12'0 0.0
2016-Apr-26 07:33N 40°38' W 074°12'0 0.0
2016-Apr-26 06:33N 40°38' W 074°12'0 0.0
2016-Apr-26 05:31N 40°38' W 074°12'0 0.0
2016-Apr-26 04:30N 40°38' W 074°12'0 0.0
2016-Apr-26 03:33N 40°38' W 074°12'0 0.0
2016-Apr-26 02:33N 40°38' W 074°12'0 0.0
2016-Apr-26 01:33N 40°38' W 074°12'0 0.0
2016-Apr-26 00:33N 40°38' W 074°12'0 0.0
2016-Apr-25 23:33N 40°38' W 074°12'0 0.0
2016-Apr-25 22:33N 40°38' W 074°12'0 0.0
2016-Apr-25 21:33N 40°38' W 074°12'0 0.0
2016-Apr-25 20:30N 40°38' W 074°12'0 0.0
2016-Apr-25 19:33N 40°38' W 074°12'0 0.0
2016-Apr-25 18:18N 40°38' W 074°12'0 0.0
2016-Apr-25 17:27N 40°38' W 074°12'1 0.7
2016-Apr-25 16:23N 40°38' W 074°12'7 8.0
2016-Apr-25 15:33N 40°39' W 074°03'0 0.2
2016-Apr-25 14:33N 40°39' W 074°03'5 5.2
2016-Apr-25 13:33N 40°39' W 074°10'0 0.0
2016-Apr-25 11:23N 40°39' W 074°10'5 6.3
2016-Apr-25 10:33N 40°39' W 074°03'0 0.0
2016-Apr-25 09:33N 40°39' W 074°03'0 0.0
2016-Apr-25 08:33N 40°39' W 074°03'0 0.0
2016-Apr-25 07:33N 40°39' W 074°03'0 0.0
2016-Apr-25 06:33N 40°39' W 074°03'0 0.0
2016-Apr-25 05:33N 40°39' W 074°03'1 1.2
2016-Apr-25 04:33N 40°40' W 074°03'  

Dump ship's entire track history